sensor_id;sensor_type;location;lat;lon;timestamp;temperature;humidity
40828;DHT22;26549;50.918;5.338;2023-12-29T13:23:32;10.60;99.90
40828;DHT22;26549;50.918;5.338;2023-12-29T13:26:01;10.70;99.90
40828;DHT22;26549;50.918;5.338;2023-12-29T13:28:28;10.80;99.90
40828;DHT22;26549;50.918;5.338;2023-12-29T13:30:54;11.00;99.90
40828;DHT22;26549;50.918;5.338;2023-12-29T13:33:48;11.30;99.90
40828;DHT22;26549;50.918;5.338;2023-12-29T13:36:28;11.40;99.90
40828;DHT22;26549;50.918;5.338;2023-12-29T13:38:59;11.50;99.90
40828;DHT22;26549;50.918;5.338;2023-12-29T13:41:33;11.70;99.90
40828;DHT22;26549;50.918;5.338;2023-12-29T13:44:00;11.70;99.90
40828;DHT22;26549;50.918;5.338;2023-12-29T13:46:27;11.80;99.90
40828;DHT22;26549;50.918;5.338;2023-12-29T13:48:55;11.90;99.90
40828;DHT22;26549;50.918;5.338;2023-12-29T13:51:25;11.80;99.90
40828;DHT22;26549;50.918;5.338;2023-12-29T13:54:00;11.90;99.90
40828;DHT22;26549;50.918;5.338;2023-12-29T13:56:26;11.90;99.90
40828;DHT22;26549;50.918;5.338;2023-12-29T13:58:52;11.90;99.90
40828;DHT22;26549;50.918;5.338;2023-12-29T14:01:18;12.00;99.90
40828;DHT22;26549;50.918;5.338;2023-12-29T14:03:54;11.90;99.90
40828;DHT22;26549;50.918;5.338;2023-12-29T14:06:26;12.00;99.90
40828;DHT22;26549;50.918;5.338;2023-12-29T14:08:54;12.10;99.90
40828;DHT22;26549;50.918;5.338;2023-12-29T14:11:20;12.00;99.90
40828;DHT22;26549;50.918;5.338;2023-12-29T14:13:46;12.10;99.90
40828;DHT22;26549;50.918;5.338;2023-12-29T14:16:15;12.00;99.90
40828;DHT22;26549;50.918;5.338;2023-12-29T14:18:53;11.90;99.90
40828;DHT22;26549;50.918;5.338;2023-12-29T14:21:22;11.90;99.90
40828;DHT22;26549;50.918;5.338;2023-12-29T14:24:07;11.90;99.90
40828;DHT22;26549;50.918;5.338;2023-12-29T14:26:38;11.90;99.90
40828;DHT22;26549;50.918;5.338;2023-12-29T14:29:10;12.00;99.90
40828;DHT22;26549;50.918;5.338;2023-12-29T14:31:39;12.00;99.90
40828;DHT22;26549;50.918;5.338;2023-12-29T14:34:07;12.10;99.90
40828;DHT22;26549;50.918;5.338;2023-12-29T14:36:34;12.00;99.90
40828;DHT22;26549;50.918;5.338;2023-12-29T14:39:03;12.00;99.90
40828;DHT22;26549;50.918;5.338;2023-12-29T14:41:30;11.90;99.90
40828;DHT22;26549;50.918;5.338;2023-12-29T14:43:56;11.90;99.90
40828;DHT22;26549;50.918;5.338;2023-12-29T14:46:22;11.90;99.90
40828;DHT22;26549;50.918;5.338;2023-12-29T14:48:48;11.90;99.90
40828;DHT22;26549;50.918;5.338;2023-12-29T14:51:14;12.00;99.90
40828;DHT22;26549;50.918;5.338;2023-12-29T14:53:45;12.00;99.90
40828;DHT22;26549;50.918;5.338;2023-12-29T14:56:15;12.00;99.90
40828;DHT22;26549;50.918;5.338;2023-12-29T14:58:42;12.10;99.90
40828;DHT22;26549;50.918;5.338;2023-12-29T15:01:08;12.00;99.90
40828;DHT22;26549;50.918;5.338;2023-12-29T15:03:36;12.10;99.90
40828;DHT22;26549;50.918;5.338;2023-12-29T15:06:04;12.00;99.90
40828;DHT22;26549;50.918;5.338;2023-12-29T15:08:30;12.00;99.90
40828;DHT22;26549;50.918;5.338;2023-12-29T15:11:03;12.00;99.90
40828;DHT22;26549;50.918;5.338;2023-12-29T15:13:29;12.00;99.90
40828;DHT22;26549;50.918;5.338;2023-12-29T15:15:59;12.00;99.90
40828;DHT22;26549;50.918;5.338;2023-12-29T15:18:26;11.90;99.90
40828;DHT22;26549;50.918;5.338;2023-12-29T15:20:53;11.80;99.90
40828;DHT22;26549;50.918;5.338;2023-12-29T15:23:19;11.80;99.90
40828;DHT22;26549;50.918;5.338;2023-12-29T15:25:46;11.90;99.90
40828;DHT22;26549;50.918;5.338;2023-12-29T15:28:15;11.80;99.90
40828;DHT22;26549;50.918;5.338;2023-12-29T15:30:46;11.90;99.90
40828;DHT22;26549;50.918;5.338;2023-12-29T15:33:13;11.90;99.90
40828;DHT22;26549;50.918;5.338;2023-12-29T15:35:40;11.90;99.90
40828;DHT22;26549;50.918;5.338;2023-12-29T15:38:08;12.00;99.90
40828;DHT22;26549;50.918;5.338;2023-12-29T15:40:33;12.00;99.90
40828;DHT22;26549;50.918;5.338;2023-12-29T15:42:59;11.80;99.90
40828;DHT22;26549;50.918;5.338;2023-12-29T15:45:25;11.90;99.90
40828;DHT22;26549;50.918;5.338;2023-12-29T15:47:51;11.90;99.90
40828;DHT22;26549;50.918;5.338;2023-12-29T15:50:17;11.90;99.90
40828;DHT22;26549;50.918;5.338;2023-12-29T15:52:45;12.00;99.90
40828;DHT22;26549;50.918;5.338;2023-12-29T15:55:10;11.90;99.90
40828;DHT22;26549;50.918;5.338;2023-12-29T15:57:37;11.90;99.90
40828;DHT22;26549;50.918;5.338;2023-12-29T16:00:11;11.90;99.90
40828;DHT22;26549;50.918;5.338;2023-12-29T16:02:40;12.00;99.90
40828;DHT22;26549;50.918;5.338;2023-12-29T16:05:06;12.00;99.90
40828;DHT22;26549;50.918;5.338;2023-12-29T16:07:32;11.90;99.90
40828;DHT22;26549;50.918;5.338;2023-12-29T16:09:58;11.90;99.90
40828;DHT22;26549;50.918;5.338;2023-12-29T16:12:25;11.90;99.90
40828;DHT22;26549;50.918;5.338;2023-12-29T16:14:51;12.00;99.90
40828;DHT22;26549;50.918;5.338;2023-12-29T16:17:19;12.00;99.90
40828;DHT22;26549;50.918;5.338;2023-12-29T16:19:45;12.00;99.90
40828;DHT22;26549;50.918;5.338;2023-12-29T16:22:12;12.00;99.90
40828;DHT22;26549;50.918;5.338;2023-12-29T16:24:38;11.90;99.90
40828;DHT22;26549;50.918;5.338;2023-12-29T16:27:05;11.90;99.90
40828;DHT22;26549;50.918;5.338;2023-12-29T16:29:32;11.90;99.90
40828;DHT22;26549;50.918;5.338;2023-12-29T16:31:58;11.90;99.90
40828;DHT22;26549;50.918;5.338;2023-12-29T16:34:24;12.10;99.90
40828;DHT22;26549;50.918;5.338;2023-12-29T16:36:59;11.90;99.90
40828;DHT22;26549;50.918;5.338;2023-12-29T16:39:25;11.80;99.90
40828;DHT22;26549;50.918;5.338;2023-12-29T16:41:51;11.90;99.90
40828;DHT22;26549;50.918;5.338;2023-12-29T16:44:17;12.00;99.90
40828;DHT22;26549;50.918;5.338;2023-12-29T16:46:45;12.00;99.90
40828;DHT22;26549;50.918;5.338;2023-12-29T16:49:11;12.00;99.90
40828;DHT22;26549;50.918;5.338;2023-12-29T16:51:36;11.90;99.90
40828;DHT22;26549;50.918;5.338;2023-12-29T16:54:08;11.80;99.90
40828;DHT22;26549;50.918;5.338;2023-12-29T16:56:34;11.70;99.90
40828;DHT22;26549;50.918;5.338;2023-12-29T16:59:00;11.70;99.90
40828;DHT22;26549;50.918;5.338;2023-12-29T17:01:28;11.60;99.90
40828;DHT22;26549;50.918;5.338;2023-12-29T17:03:53;11.80;99.90
40828;DHT22;26549;50.918;5.338;2023-12-29T17:06:20;11.70;99.90
40828;DHT22;26549;50.918;5.338;2023-12-29T17:08:46;11.80;99.90
40828;DHT22;26549;50.918;5.338;2023-12-29T17:11:12;11.80;99.90
40828;DHT22;26549;50.918;5.338;2023-12-29T17:13:37;11.60;99.90
40828;DHT22;26549;50.918;5.338;2023-12-29T17:16:03;11.60;99.90
40828;DHT22;26549;50.918;5.338;2023-12-29T17:18:32;11.50;99.90
40828;DHT22;26549;50.918;5.338;2023-12-29T17:20:58;11.60;99.90
40828;DHT22;26549;50.918;5.338;2023-12-29T17:23:25;11.50;99.90
40828;DHT22;26549;50.918;5.338;2023-12-29T17:25:50;11.70;99.90
40828;DHT22;26549;50.918;5.338;2023-12-29T17:28:16;11.80;99.90
40828;DHT22;26549;50.918;5.338;2023-12-29T17:30:42;11.80;99.90
40828;DHT22;26549;50.918;5.338;2023-12-29T17:33:08;11.90;99.90
40828;DHT22;26549;50.918;5.338;2023-12-29T17:35:35;11.90;99.90
40828;DHT22;26549;50.918;5.338;2023-12-29T17:38:03;11.80;99.90
40828;DHT22;26549;50.918;5.338;2023-12-29T17:40:28;11.80;99.90
40828;DHT22;26549;50.918;5.338;2023-12-29T17:42:54;11.90;99.90
40828;DHT22;26549;50.918;5.338;2023-12-29T17:45:21;11.90;99.90
40828;DHT22;26549;50.918;5.338;2023-12-29T17:47:47;12.00;99.90
40828;DHT22;26549;50.918;5.338;2023-12-29T17:50:13;12.00;99.90
40828;DHT22;26549;50.918;5.338;2023-12-29T17:52:40;12.00;99.90
40828;DHT22;26549;50.918;5.338;2023-12-29T17:55:07;12.10;99.90
40828;DHT22;26549;50.918;5.338;2023-12-29T17:57:33;12.10;99.90
40828;DHT22;26549;50.918;5.338;2023-12-29T18:00:03;12.00;99.90
40828;DHT22;26549;50.918;5.338;2023-12-29T18:02:29;12.00;99.90
40828;DHT22;26549;50.918;5.338;2023-12-29T18:04:58;12.00;99.90
40828;DHT22;26549;50.918;5.338;2023-12-29T18:07:25;11.90;99.90
40828;DHT22;26549;50.918;5.338;2023-12-29T18:09:51;11.80;99.90
40828;DHT22;26549;50.918;5.338;2023-12-29T18:12:17;11.80;99.90
40828;DHT22;26549;50.918;5.338;2023-12-29T18:14:44;11.80;99.90
40828;DHT22;26549;50.918;5.338;2023-12-29T18:17:11;11.70;99.90
40828;DHT22;26549;50.918;5.338;2023-12-29T18:19:38;11.80;99.90
40828;DHT22;26549;50.918;5.338;2023-12-29T18:22:04;11.80;99.90
40828;DHT22;26549;50.918;5.338;2023-12-29T18:24:31;11.80;99.90
40828;DHT22;26549;50.918;5.338;2023-12-29T18:26:56;11.70;99.90
40828;DHT22;26549;50.918;5.338;2023-12-29T18:29:23;11.80;99.90
40828;DHT22;26549;50.918;5.338;2023-12-29T18:31:52;11.70;99.90
40828;DHT22;26549;50.918;5.338;2023-12-29T18:34:18;11.70;99.90
40828;DHT22;26549;50.918;5.338;2023-12-29T18:36:43;11.80;99.90
40828;DHT22;26549;50.918;5.338;2023-12-29T18:39:09;11.70;99.90
40828;DHT22;26549;50.918;5.338;2023-12-29T18:41:35;11.70;99.90
40828;DHT22;26549;50.918;5.338;2023-12-29T18:44:01;11.60;99.90
40828;DHT22;26549;50.918;5.338;2023-12-29T18:46:26;11.70;99.90
40828;DHT22;26549;50.918;5.338;2023-12-29T18:48:53;11.60;99.90
40828;DHT22;26549;50.918;5.338;2023-12-29T18:51:20;11.60;99.90
40828;DHT22;26549;50.918;5.338;2023-12-29T18:53:46;11.60;99.90
40828;DHT22;26549;50.918;5.338;2023-12-29T18:56:13;11.60;99.90
40828;DHT22;26549;50.918;5.338;2023-12-29T18:58:40;11.60;99.90
40828;DHT22;26549;50.918;5.338;2023-12-29T19:01:05;11.60;99.90
40828;DHT22;26549;50.918;5.338;2023-12-29T19:03:32;11.60;99.90
40828;DHT22;26549;50.918;5.338;2023-12-29T19:05:59;11.60;99.90
40828;DHT22;26549;50.918;5.338;2023-12-29T19:08:26;11.60;99.90
40828;DHT22;26549;50.918;5.338;2023-12-29T19:10:53;11.60;99.90
40828;DHT22;26549;50.918;5.338;2023-12-29T19:13:19;11.80;99.90
40828;DHT22;26549;50.918;5.338;2023-12-29T19:15:47;11.70;99.90
40828;DHT22;26549;50.918;5.338;2023-12-29T19:18:12;11.70;99.90
40828;DHT22;26549;50.918;5.338;2023-12-29T19:20:38;11.70;99.90
40828;DHT22;26549;50.918;5.338;2023-12-29T19:23:06;11.70;99.90
40828;DHT22;26549;50.918;5.338;2023-12-29T19:25:31;11.60;99.90
40828;DHT22;26549;50.918;5.338;2023-12-29T19:27:57;11.40;99.90
40828;DHT22;26549;50.918;5.338;2023-12-29T19:30:25;11.40;99.90
40828;DHT22;26549;50.918;5.338;2023-12-29T19:32:51;11.50;99.90
40828;DHT22;26549;50.918;5.338;2023-12-29T19:35:17;11.50;99.90
40828;DHT22;26549;50.918;5.338;2023-12-29T19:37:43;11.40;99.90
40828;DHT22;26549;50.918;5.338;2023-12-29T19:40:12;11.30;99.90
40828;DHT22;26549;50.918;5.338;2023-12-29T19:42:38;11.40;99.90
40828;DHT22;26549;50.918;5.338;2023-12-29T19:45:05;11.40;99.90
40828;DHT22;26549;50.918;5.338;2023-12-29T19:47:32;11.30;99.90
40828;DHT22;26549;50.918;5.338;2023-12-29T19:49:58;11.30;99.90
40828;DHT22;26549;50.918;5.338;2023-12-29T19:52:25;11.50;99.90
40828;DHT22;26549;50.918;5.338;2023-12-29T19:54:51;11.50;99.90
40828;DHT22;26549;50.918;5.338;2023-12-29T19:57:17;11.40;99.90
40828;DHT22;26549;50.918;5.338;2023-12-29T19:59:43;11.40;99.90
40828;DHT22;26549;50.918;5.338;2023-12-29T20:02:11;11.40;99.90
40828;DHT22;26549;50.918;5.338;2023-12-29T20:04:40;11.50;99.90
40828;DHT22;26549;50.918;5.338;2023-12-29T20:07:08;11.50;99.90
40828;DHT22;26549;50.918;5.338;2023-12-29T20:09:35;11.40;99.90
40828;DHT22;26549;50.918;5.338;2023-12-29T20:12:00;11.50;99.90
40828;DHT22;26549;50.918;5.338;2023-12-29T20:14:26;11.40;99.90
40828;DHT22;26549;50.918;5.338;2023-12-29T20:16:53;11.40;99.90
40828;DHT22;26549;50.918;5.338;2023-12-29T20:19:18;11.40;99.90
40828;DHT22;26549;50.918;5.338;2023-12-29T20:21:44;11.40;99.90
40828;DHT22;26549;50.918;5.338;2023-12-29T20:24:11;11.40;99.90
40828;DHT22;26549;50.918;5.338;2023-12-29T20:26:39;11.40;99.90
40828;DHT22;26549;50.918;5.338;2023-12-29T20:29:06;11.40;99.90
40828;DHT22;26549;50.918;5.338;2023-12-29T20:31:32;11.50;99.90
40828;DHT22;26549;50.918;5.338;2023-12-29T20:33:59;11.40;99.90
40828;DHT22;26549;50.918;5.338;2023-12-29T20:36:26;11.40;99.90
40828;DHT22;26549;50.918;5.338;2023-12-29T20:38:52;11.40;99.90
40828;DHT22;26549;50.918;5.338;2023-12-29T20:41:21;11.30;99.90
40828;DHT22;26549;50.918;5.338;2023-12-29T20:43:47;11.30;99.90
40828;DHT22;26549;50.918;5.338;2023-12-29T20:46:17;11.30;99.90
40828;DHT22;26549;50.918;5.338;2023-12-29T20:48:45;11.40;99.90
40828;DHT22;26549;50.918;5.338;2023-12-29T20:51:11;11.30;99.90
40828;DHT22;26549;50.918;5.338;2023-12-29T20:53:39;11.50;99.90
40828;DHT22;26549;50.918;5.338;2023-12-29T20:56:11;11.50;99.90
40828;DHT22;26549;50.918;5.338;2023-12-29T20:58:37;11.50;99.90
40828;DHT22;26549;50.918;5.338;2023-12-29T21:01:04;11.30;99.90
40828;DHT22;26549;50.918;5.338;2023-12-29T21:03:32;11.30;99.90
40828;DHT22;26549;50.918;5.338;2023-12-29T21:05:58;11.30;99.90
40828;DHT22;26549;50.918;5.338;2023-12-29T21:08:24;11.40;99.90
40828;DHT22;26549;50.918;5.338;2023-12-29T21:10:50;11.30;99.90
40828;DHT22;26549;50.918;5.338;2023-12-29T21:13:16;11.10;99.90
40828;DHT22;26549;50.918;5.338;2023-12-29T21:15:42;11.10;99.90
40828;DHT22;26549;50.918;5.338;2023-12-29T21:18:09;11.10;99.90
40828;DHT22;26549;50.918;5.338;2023-12-29T21:20:36;11.00;99.90
40828;DHT22;26549;50.918;5.338;2023-12-29T21:23:02;11.00;99.90
40828;DHT22;26549;50.918;5.338;2023-12-29T21:25:29;11.00;99.90
40828;DHT22;26549;50.918;5.338;2023-12-29T21:28:01;10.90;99.90
40828;DHT22;26549;50.918;5.338;2023-12-29T21:30:31;10.90;99.90
40828;DHT22;26549;50.918;5.338;2023-12-29T21:32:57;10.90;99.90
40828;DHT22;26549;50.918;5.338;2023-12-29T21:35:24;10.80;99.90
40828;DHT22;26549;50.918;5.338;2023-12-29T21:37:50;10.80;99.90
40828;DHT22;26549;50.918;5.338;2023-12-29T21:40:17;10.70;99.90
40828;DHT22;26549;50.918;5.338;2023-12-29T21:42:42;10.70;99.90
40828;DHT22;26549;50.918;5.338;2023-12-29T21:45:09;10.70;99.90
40828;DHT22;26549;50.918;5.338;2023-12-29T21:47:37;10.60;99.90
40828;DHT22;26549;50.918;5.338;2023-12-29T21:50:06;10.70;99.90
40828;DHT22;26549;50.918;5.338;2023-12-29T21:52:34;10.80;99.90
40828;DHT22;26549;50.918;5.338;2023-12-29T21:55:00;10.70;99.90
40828;DHT22;26549;50.918;5.338;2023-12-29T21:57:26;10.70;99.90
40828;DHT22;26549;50.918;5.338;2023-12-29T21:59:53;10.70;99.90
40828;DHT22;26549;50.918;5.338;2023-12-29T22:02:18;10.80;99.90
40828;DHT22;26549;50.918;5.338;2023-12-29T22:04:44;10.80;99.90
40828;DHT22;26549;50.918;5.338;2023-12-29T22:07:11;10.80;99.90
40828;DHT22;26549;50.918;5.338;2023-12-29T22:09:38;10.80;99.90
40828;DHT22;26549;50.918;5.338;2023-12-29T22:12:04;10.80;99.90
40828;DHT22;26549;50.918;5.338;2023-12-29T22:14:30;10.80;99.90
40828;DHT22;26549;50.918;5.338;2023-12-29T22:16:56;10.90;99.90
40828;DHT22;26549;50.918;5.338;2023-12-29T22:19:23;10.90;99.90
40828;DHT22;26549;50.918;5.338;2023-12-29T22:21:49;10.90;99.90
40828;DHT22;26549;50.918;5.338;2023-12-29T22:24:15;10.80;99.90
40828;DHT22;26549;50.918;5.338;2023-12-29T22:26:40;10.90;99.90
40828;DHT22;26549;50.918;5.338;2023-12-29T22:29:06;10.70;99.90
40828;DHT22;26549;50.918;5.338;2023-12-29T22:31:32;10.80;99.90
40828;DHT22;26549;50.918;5.338;2023-12-29T22:33:58;10.80;99.90
40828;DHT22;26549;50.918;5.338;2023-12-29T22:36:25;10.80;99.90
40828;DHT22;26549;50.918;5.338;2023-12-29T22:38:52;10.90;99.90
40828;DHT22;26549;50.918;5.338;2023-12-29T22:41:19;10.90;99.90
40828;DHT22;26549;50.918;5.338;2023-12-29T22:43:46;10.80;99.90
40828;DHT22;26549;50.918;5.338;2023-12-29T22:46:16;10.80;99.90
40828;DHT22;26549;50.918;5.338;2023-12-29T22:48:42;10.80;99.90
40828;DHT22;26549;50.918;5.338;2023-12-29T22:51:10;11.00;99.90
40828;DHT22;26549;50.918;5.338;2023-12-29T22:53:38;11.00;99.90
40828;DHT22;26549;50.918;5.338;2023-12-29T22:56:05;11.00;99.90
40828;DHT22;26549;50.918;5.338;2023-12-29T22:58:32;11.00;99.90
40828;DHT22;26549;50.918;5.338;2023-12-29T23:00:58;10.90;99.90
40828;DHT22;26549;50.918;5.338;2023-12-29T23:03:25;10.90;99.90
40828;DHT22;26549;50.918;5.338;2023-12-29T23:05:51;10.80;99.90
40828;DHT22;26549;50.918;5.338;2023-12-29T23:08:18;10.80;99.90
40828;DHT22;26549;50.918;5.338;2023-12-29T23:10:44;10.80;99.90
40828;DHT22;26549;50.918;5.338;2023-12-29T23:13:10;10.90;99.90
40828;DHT22;26549;50.918;5.338;2023-12-29T23:15:37;10.80;99.90
40828;DHT22;26549;50.918;5.338;2023-12-29T23:18:03;10.70;99.90
40828;DHT22;26549;50.918;5.338;2023-12-29T23:20:31;10.80;99.90
40828;DHT22;26549;50.918;5.338;2023-12-29T23:22:57;10.80;99.90
40828;DHT22;26549;50.918;5.338;2023-12-29T23:25:25;10.80;99.90
40828;DHT22;26549;50.918;5.338;2023-12-29T23:27:50;10.80;99.90
40828;DHT22;26549;50.918;5.338;2023-12-29T23:30:16;10.90;99.90
40828;DHT22;26549;50.918;5.338;2023-12-29T23:32:45;10.90;99.90
40828;DHT22;26549;50.918;5.338;2023-12-29T23:35:11;10.90;99.90
40828;DHT22;26549;50.918;5.338;2023-12-29T23:37:37;10.70;99.90
40828;DHT22;26549;50.918;5.338;2023-12-29T23:40:06;10.80;99.90
40828;DHT22;26549;50.918;5.338;2023-12-29T23:42:35;10.80;99.90
40828;DHT22;26549;50.918;5.338;2023-12-29T23:45:04;10.70;99.90
40828;DHT22;26549;50.918;5.338;2023-12-29T23:47:30;10.70;99.90
40828;DHT22;26549;50.918;5.338;2023-12-29T23:49:57;10.80;99.90
40828;DHT22;26549;50.918;5.338;2023-12-29T23:52:24;10.70;99.90
40828;DHT22;26549;50.918;5.338;2023-12-29T23:54:50;10.70;99.90
40828;DHT22;26549;50.918;5.338;2023-12-29T23:57:16;10.60;99.90
40828;DHT22;26549;50.918;5.338;2023-12-29T23:59:44;10.60;99.90
